createdAt,value
2022-09-14T05:40:27.338Z,59.16
2022-09-14T05:42:58.483Z,59.62
2022-09-14T05:48:46.760Z,59.12
2022-09-14T05:51:15.793Z,59.67
2022-09-14T05:56:33.617Z,59.02
2022-09-14T05:59:01.082Z,59.54
2022-09-14T06:01:30.718Z,57.80
2022-09-14T06:03:59.203Z,56.88
2022-09-14T06:06:26.960Z,57.02
2022-09-14T06:08:53.998Z,56.34
2022-09-14T06:11:21.494Z,55.89
2022-09-14T06:13:49.116Z,55.09
2022-09-14T06:16:16.910Z,55.37
2022-09-14T06:18:45.728Z,54.94
2022-09-14T06:21:12.384Z,55.40
2022-09-14T06:26:33.339Z,53.62
2022-09-14T06:29:00.152Z,53.39
2022-09-14T06:31:27.813Z,53.26
2022-09-14T06:33:54.369Z,53.63
2022-09-14T06:36:20.859Z,53.36
2022-09-14T06:38:47.487Z,52.64
2022-09-14T06:41:14.420Z,52.70
2022-09-14T06:43:41.086Z,53.68
2022-09-14T06:46:08.572Z,55.75
2022-09-14T06:48:35.341Z,56.56
2022-09-14T06:51:02.118Z,56.36
2022-09-14T06:53:31.483Z,56.01
2022-09-14T06:55:58.068Z,57.00
2022-09-14T06:58:24.884Z,60.02
2022-09-14T07:00:51.746Z,59.56
2022-09-14T07:03:21.106Z,57.93
2022-09-14T07:05:47.610Z,59.59
2022-09-14T07:08:14.600Z,59.44
2022-09-14T07:10:43.372Z,60.74
2022-09-14T07:13:10.898Z,60.69
2022-09-14T07:15:40.488Z,58.79
2022-09-14T07:18:08.046Z,57.64
2022-09-14T07:20:35.296Z,59.06
2022-09-14T07:23:02.341Z,59.51
2022-09-14T07:25:31.497Z,60.69
2022-09-14T07:28:07.051Z,60.14
2022-09-14T07:30:39.879Z,61.11
2022-09-14T07:33:08.919Z,62.37
2022-09-14T07:35:39.086Z,61.12
2022-09-14T07:38:07.874Z,63.91
2022-09-14T07:40:38.397Z,63.37
2022-09-14T07:43:05.050Z,64.32
2022-09-14T07:45:34.623Z,63.07
2022-09-14T07:48:01.219Z,64.18
2022-09-14T07:50:29.581Z,62.89
2022-09-14T07:52:57.209Z,63.27
2022-09-14T07:55:24.046Z,63.70
2022-09-14T08:00:48.641Z,67.55
2022-09-14T08:03:17.873Z,68.82
2022-09-14T08:05:44.839Z,68.99
2022-09-14T08:08:12.193Z,69.70
2022-09-14T08:10:39.705Z,68.83
2022-09-14T08:16:00.603Z,67.78
2022-09-14T08:18:27.697Z,67.98
2022-09-14T08:20:54.652Z,66.47
2022-09-14T08:23:22.080Z,66.34
2022-09-14T08:25:50.127Z,64.52
2022-09-14T08:28:18.718Z,62.64
2022-09-14T08:30:45.529Z,62.89
2022-09-14T08:33:17.511Z,59.43
2022-09-14T08:36:03.412Z,58.13
2022-09-14T08:38:33.398Z,56.56
2022-09-14T08:41:00.805Z,56.38
2022-09-14T08:43:28.176Z,54.84
2022-09-14T08:45:56.757Z,54.69
2022-09-14T08:48:23.582Z,54.30
2022-09-14T08:50:51.467Z,53.36
2022-09-14T08:53:18.643Z,52.60
2022-09-14T08:55:45.566Z,53.67
2022-09-14T08:58:12.429Z,53.62
2022-09-14T09:00:43.810Z,52.51
2022-09-14T09:03:10.652Z,51.98
2022-09-14T09:05:38.121Z,52.11
2022-09-14T09:08:06.955Z,53.05
2022-09-14T09:13:43.174Z,52.95
2022-09-14T09:18:50.584Z,54.68
2022-09-14T09:24:38.964Z,53.98
2022-09-14T09:27:06.624Z,54.25
2022-09-14T09:29:36.086Z,53.81
2022-09-14T09:32:04.067Z,53.33
2022-09-14T09:34:31.991Z,53.40
2022-09-14T09:36:59.545Z,54.44
2022-09-14T09:39:27.312Z,54.57
2022-09-14T09:41:54.085Z,55.90
2022-09-14T09:44:20.987Z,56.58
2022-09-14T09:46:55.834Z,56.46
2022-09-14T09:49:24.605Z,55.75
2022-09-14T09:51:52.099Z,55.11
2022-09-14T09:54:18.885Z,55.19
2022-09-14T09:56:46.555Z,54.08
2022-09-14T09:59:15.568Z,50.76
2022-09-14T10:01:44.364Z,52.34
2022-09-14T10:04:11.590Z,49.77
2022-09-14T10:06:42.130Z,49.67
2022-09-14T10:09:09.493Z,50.93
2022-09-14T10:11:38.167Z,52.27
2022-09-14T10:16:47.517Z,50.46
2022-09-14T10:19:14.345Z,49.36
2022-09-14T10:21:42.084Z,49.44
2022-09-14T10:24:10.682Z,49.88
2022-09-14T10:26:37.673Z,50.64
2022-09-14T10:29:04.579Z,48.60
2022-09-14T10:31:45.357Z,47.76
2022-09-14T10:34:16.777Z,48.33
2022-09-14T10:36:48.109Z,48.55
2022-09-14T10:39:15.130Z,47.68
2022-09-14T10:41:42.036Z,47.54
2022-09-14T10:46:51.277Z,49.89
2022-09-14T10:49:17.945Z,48.84
2022-09-14T10:51:46.325Z,48.90
2022-09-14T10:54:14.243Z,48.20
2022-09-14T10:56:41.863Z,48.97
2022-09-14T10:59:12.998Z,48.97
2022-09-14T11:01:40.424Z,47.82
2022-09-14T11:04:09.539Z,47.45
2022-09-14T11:06:40.260Z,47.84
2022-09-14T11:12:25.894Z,48.87
2022-09-14T11:14:57.329Z,47.55
2022-09-14T11:17:26.342Z,48.09
2022-09-14T11:19:57.970Z,48.37
2022-09-14T11:22:27.737Z,48.19
2022-09-14T11:24:54.540Z,49.82
2022-09-14T11:27:21.270Z,49.64
2022-09-14T11:29:49.728Z,49.72
2022-09-14T11:32:21.304Z,49.37
2022-09-14T11:34:48.864Z,48.47
2022-09-14T11:37:17.421Z,51.63
2022-09-14T11:39:44.954Z,49.79
2022-09-14T11:42:11.628Z,48.14
2022-09-14T11:44:40.625Z,48.04
2022-09-14T11:47:08.475Z,47.63
2022-09-14T11:49:37.608Z,46.18
2022-09-14T11:52:04.292Z,44.99
2022-09-14T11:54:32.353Z,45.58
2022-09-14T11:57:02.814Z,45.43
2022-09-14T11:59:32.710Z,47.57
2022-09-14T12:01:59.283Z,48.61
2022-09-14T12:04:26.260Z,48.67
2022-09-14T12:06:55.324Z,48.22
2022-09-14T12:09:22.714Z,48.81
2022-09-14T12:11:49.492Z,50.12
2022-09-14T12:14:16.706Z,47.75
2022-09-14T12:19:25.519Z,47.35
2022-09-14T12:21:53.244Z,46.17
2022-09-14T12:24:21.965Z,45.64
2022-09-14T12:26:51.161Z,46.65
2022-09-14T12:29:18.843Z,47.54
2022-09-14T12:31:54.755Z,46.37
2022-09-14T12:34:27.551Z,46.08
2022-09-14T12:36:56.716Z,46.59
2022-09-14T12:39:26.624Z,47.02
2022-09-14T12:44:35.200Z,48.25
2022-09-14T12:47:03.708Z,47.36
2022-09-14T12:49:30.691Z,47.41
2022-09-14T12:51:58.518Z,46.96
2022-09-14T12:54:38.473Z,47.50
2022-09-14T12:57:06.109Z,46.96
2022-09-14T12:59:33.153Z,46.65
2022-09-14T13:01:59.996Z,46.40
2022-09-14T13:04:33.268Z,45.51
2022-09-14T13:07:01.694Z,46.79
2022-09-14T13:09:30.789Z,46.55
2022-09-14T13:11:58.377Z,46.16
2022-09-14T13:14:25.945Z,46.58
2022-09-14T13:16:52.961Z,45.51
2022-09-14T13:22:00.260Z,45.33
2022-09-14T13:24:36.783Z,44.21
2022-09-14T13:27:04.756Z,44.24
2022-09-14T13:29:34.822Z,43.42
2022-09-14T13:32:04.172Z,44.29
2022-09-14T13:34:34.949Z,43.26
2022-09-14T13:37:02.253Z,44.56
2022-09-14T13:39:29.041Z,43.28
2022-09-14T13:41:56.791Z,44.33
2022-09-14T13:44:26.492Z,42.54
2022-09-14T13:46:53.838Z,42.51
2022-09-14T13:49:23.159Z,43.44
2022-09-14T13:51:49.997Z,44.15
2022-09-14T13:54:17.356Z,43.73
2022-09-14T13:56:45.100Z,43.24
2022-09-14T13:59:14.628Z,42.44
2022-09-14T14:04:24.721Z,43.41
2022-09-14T14:06:51.722Z,43.13
2022-09-14T14:09:20.622Z,43.71
2022-09-14T14:11:48.274Z,45.67
2022-09-14T14:14:15.452Z,45.04
2022-09-14T14:16:43.625Z,45.71
2022-09-14T14:28:38.484Z,45.54
2022-09-14T14:31:08.718Z,45.59
2022-09-14T14:33:44.709Z,45.31
2022-09-14T14:42:34.454Z,44.92
2022-09-14T14:45:09.732Z,44.34
2022-09-14T14:47:38.668Z,43.91
2022-09-14T14:50:05.834Z,45.34
2022-09-14T14:52:32.945Z,45.71
2022-09-14T14:55:06.928Z,45.56
2022-09-14T14:57:34.265Z,45.86
2022-09-14T15:00:07.731Z,46.43
2022-09-14T15:02:38.526Z,45.75
2022-09-14T15:05:05.986Z,45.75
2022-09-14T15:07:37.751Z,45.88
2022-09-14T15:10:07.698Z,47.21
2022-09-14T15:12:38.077Z,46.93
2022-09-14T15:15:10.232Z,46.91
2022-09-14T15:17:41.992Z,46.96
2022-09-14T15:20:14.581Z,47.56
2022-09-14T15:25:24.287Z,47.95
2022-09-14T15:27:51.448Z,48.85
2022-09-14T15:30:18.109Z,49.49
2022-09-14T15:32:44.970Z,48.24
2022-09-14T15:35:11.587Z,47.92
2022-09-14T15:37:40.060Z,47.93
2022-09-14T15:40:07.079Z,47.43
2022-09-14T15:42:37.716Z,48.18
2022-09-14T15:48:13.541Z,46.98
2022-09-14T15:50:40.834Z,49.87
2022-09-14T15:53:07.495Z,47.87
2022-09-14T15:55:34.598Z,47.22
2022-09-14T15:58:02.927Z,46.88
2022-09-14T16:00:31.153Z,46.46
2022-09-14T16:03:06.887Z,48.92
2022-09-14T16:05:36.211Z,47.85
2022-09-14T16:08:02.863Z,47.55
2022-09-14T16:10:32.810Z,47.13
2022-09-14T16:19:05.878Z,47.96
2022-09-14T16:21:33.088Z,46.77
2022-09-14T16:23:59.608Z,45.30
2022-09-14T16:26:27.493Z,44.99
2022-09-14T16:28:54.220Z,44.22
2022-09-14T16:31:21.218Z,44.48
2022-09-14T16:33:47.904Z,44.75
2022-09-14T16:36:16.628Z,43.82
2022-09-14T16:41:27.064Z,43.40
2022-09-14T16:43:54.892Z,43.75
2022-09-14T16:46:21.977Z,43.11
2022-09-14T16:48:48.987Z,43.50
2022-09-14T16:51:20.308Z,43.99
2022-09-14T16:59:43.142Z,45.40
2022-09-14T17:02:14.137Z,44.43
2022-09-14T17:04:40.734Z,44.84
2022-09-14T17:07:17.280Z,46.44
2022-09-14T17:12:33.490Z,47.35
2022-09-14T17:18:13.555Z,47.76
2022-09-14T17:20:41.577Z,48.24
2022-09-14T17:23:10.272Z,48.54
2022-09-14T17:25:37.590Z,50.10
2022-09-14T17:28:10.435Z,50.25
2022-09-14T17:30:37.214Z,50.46
2022-09-14T17:33:04.051Z,50.14
2022-09-14T17:35:31.480Z,50.66
2022-09-14T17:50:28.769Z,52.56
2022-09-14T17:52:58.622Z,51.31
2022-09-14T17:55:25.877Z,50.58
2022-09-14T18:01:02.412Z,50.11
2022-09-14T18:03:31.637Z,49.71
2022-09-14T18:05:59.343Z,49.93
2022-09-14T18:08:25.872Z,52.57
2022-09-14T18:10:52.332Z,52.00
2022-09-14T18:13:18.881Z,53.93
2022-09-14T18:15:46.530Z,54.30
2022-09-14T18:18:13.704Z,53.73
2022-09-14T18:20:40.734Z,52.70
2022-09-14T18:25:50.631Z,50.75
2022-09-14T18:28:17.430Z,50.06
2022-09-14T18:30:44.202Z,50.51
2022-09-14T18:33:10.996Z,49.92
2022-09-14T18:35:38.389Z,49.15
2022-09-14T18:38:05.006Z,49.38
2022-09-14T18:40:32.746Z,49.45
2022-09-14T18:43:01.575Z,48.87
2022-09-14T18:45:28.099Z,50.25
2022-09-14T18:47:54.737Z,48.24
2022-09-14T18:50:23.420Z,49.27
2022-09-14T18:52:50.282Z,50.92
2022-09-14T18:55:17.478Z,51.17
2022-09-14T18:57:44.008Z,53.47
2022-09-14T19:00:18.343Z,58.25
2022-09-14T19:02:45.230Z,59.90
2022-09-14T19:05:14.765Z,57.77
2022-09-14T19:07:41.353Z,56.31
2022-09-14T19:10:11.448Z,56.88
2022-09-14T19:12:38.736Z,59.81
2022-09-14T19:15:05.568Z,61.90
2022-09-14T19:17:35.530Z,65.22
2022-09-14T19:20:04.388Z,65.34
2022-09-14T19:22:31.047Z,63.92
2022-09-14T19:25:08.060Z,64.89
2022-09-14T19:31:02.072Z,59.63
2022-09-14T19:33:28.846Z,57.60
2022-09-14T19:35:57.943Z,57.58
2022-09-14T19:38:33.404Z,57.22
2022-09-14T19:41:01.162Z,58.96
2022-09-14T19:43:30.521Z,58.64
2022-09-14T19:46:00.497Z,57.98
2022-09-14T19:48:27.903Z,57.55
2022-09-14T19:50:56.840Z,57.82
2022-09-14T19:53:26.986Z,58.13
2022-09-14T19:58:53.367Z,60.66
2022-09-14T20:01:20.903Z,63.29
2022-09-14T20:04:02.676Z,60.53
2022-09-14T20:06:35.546Z,59.62
2022-09-14T20:09:11.513Z,58.14
2022-09-14T20:20:36.889Z,58.51
2022-09-14T20:23:04.363Z,58.23
2022-09-14T20:31:53.092Z,61.17
2022-09-14T20:41:03.798Z,65.61
2022-09-14T20:43:31.510Z,67.20
2022-09-14T20:46:02.377Z,67.42
2022-09-14T20:48:30.847Z,66.98
2022-09-14T20:50:57.880Z,65.89
2022-09-14T20:59:47.823Z,65.58
2022-09-14T21:11:27.440Z,61.49
2022-09-14T21:13:58.197Z,61.75
2022-09-14T21:16:30.478Z,59.80
2022-09-14T21:19:09.589Z,62.31
2022-09-14T21:21:50.055Z,61.47
2022-09-14T21:27:13.039Z,62.57
2022-09-14T21:29:50.547Z,63.03
2022-09-14T21:32:24.556Z,60.88
2022-09-14T21:34:51.029Z,62.13
2022-09-14T21:37:21.616Z,61.25
2022-09-14T21:39:50.372Z,59.60
2022-09-14T21:42:17.364Z,59.68
2022-09-14T21:44:44.285Z,60.63
2022-09-14T21:47:13.804Z,62.44
2022-09-14T21:49:40.502Z,63.17
2022-09-14T21:52:07.181Z,64.53
2022-09-14T21:54:33.866Z,65.43
2022-09-14T21:57:00.716Z,67.72
2022-09-14T21:59:27.447Z,66.67
2022-09-14T22:01:54.456Z,63.82
2022-09-14T22:04:21.890Z,63.62
2022-09-14T22:06:49.430Z,64.41
2022-09-14T22:09:17.668Z,68.19
2022-09-14T22:11:44.274Z,68.94
2022-09-14T22:14:10.979Z,70.10
2022-09-14T22:16:38.323Z,71.45
2022-09-14T22:19:05.037Z,71.52
2022-09-14T22:21:31.934Z,71.38
2022-09-14T22:23:58.648Z,71.18
2022-09-14T22:26:28.948Z,71.23
2022-09-14T22:28:56.317Z,71.65
2022-09-14T22:31:23.758Z,68.54
2022-09-14T22:33:52.653Z,67.97
2022-09-14T22:36:19.473Z,65.65
2022-09-14T22:41:52.586Z,63.65
2022-09-14T22:44:19.465Z,67.73
2022-09-14T22:46:46.250Z,69.16
2022-09-14T22:49:20.241Z,69.76
2022-09-14T22:51:48.631Z,69.51
2022-09-14T22:54:17.543Z,70.99
2022-09-14T22:56:44.599Z,70.77
2022-09-14T22:59:12.111Z,69.42
2022-09-14T23:01:38.937Z,67.48
2022-09-14T23:04:08.702Z,66.23
2022-09-14T23:09:26.189Z,67.37
2022-09-14T23:11:53.021Z,66.00
2022-09-14T23:14:21.279Z,64.89
2022-09-14T23:16:48.113Z,65.77
2022-09-14T23:19:14.703Z,64.00
2022-09-14T23:21:41.725Z,62.19
2022-09-14T23:24:08.386Z,61.15
2022-09-14T23:26:37.134Z,60.79
2022-09-14T23:29:04.541Z,61.17
2022-09-14T23:31:32.075Z,60.75
2022-09-14T23:34:03.922Z,63.21
2022-09-14T23:36:30.542Z,61.25
2022-09-14T23:38:57.393Z,59.36
2022-09-14T23:41:24.187Z,58.43
2022-09-14T23:43:51.612Z,58.81
2022-09-14T23:46:20.014Z,59.26
2022-09-14T23:48:47.423Z,58.93
2022-09-14T23:51:14.814Z,57.60
2022-09-14T23:56:25.863Z,57.64
2022-09-14T23:58:53.044Z,58.42
